Flag for USA

Past Weather in Tallahassee, Florida, USA — November 2020

Currently: 62 °F. Clear. (Weather station: Tallahassee Regional Airport, USA). See more current weather

November 2020 Weather in Tallahassee — Graph

°F

High & Low Weather Summary for November 2020

 TemperatureHumidityPressure
High87 °F (Nov 10, 2:53 pm)100% (Nov 15, 6:53 am)30.50 "Hg (Nov 15, 6:53 am)
Low38 °F (Nov 3, 1:53 am)19% (Nov 16, 2:53 pm)29.74 "Hg (Nov 12, 3:53 am)
Average67 °F72%30.14 "Hg
* Reported Nov 1 12:53 am — Nov 23 6:53 pm, Tallahassee. Weather by CustomWeather, © 2020

Note: Actual official high and low records may vary slightly from our data, if they occured in-between our weather recording intervals... More about our weather records

Tallahassee Weather History for November 1, 2020

Scroll right to see more
 ConditionsComfort  
Time TempWeatherWind HumidityBarometerVisibility
12:53 am
Sun, Nov 1
68 °FOvercast.8 mph84%30.16 "Hg10 mi
1:21 am67 °FLow clouds.7 mph87%30.16 "Hg10 mi
1:53 am67 °FOvercast.5 mph87%30.15 "Hg10 mi
1:53 am67 °FLow clouds.6 mph87%30.14 "Hg10 mi
2:53 am66 °FLow clouds.5 mph93%30.14 "Hg10 mi
3:53 am66 °FLow clouds.7 mph93%30.14 "Hg10 mi
4:53 am65 °FLow clouds.5 mph97%30.14 "Hg10 mi
5:53 am65 °FLow clouds.5 mph94%30.15 "Hg10 mi
6:53 am65 °FLow clouds.6 mph94%30.17 "Hg10 mi
7:53 am65 °FLow clouds.6 mph94%30.17 "Hg10 mi
8:53 am66 °FLow clouds.7 mph90%30.19 "Hg10 mi
9:53 am69 °FPartly sunny.7 mph81%30.19 "Hg10 mi
10:18 am70 °FPartly sunny.9 mph81%30.19 "Hg10 mi
10:53 am70 °FOvercast.10 mph79%30.18 "Hg10 mi
11:35 am73 °FPartly sunny.14 mph71%30.17 "Hg10 mi
11:53 am74 °FScattered clouds.9 mph67%30.15 "Hg10 mi
12:53 pm76 °FScattered clouds.9 mph60%30.11 "Hg10 mi
1:53 pm78 °FScattered clouds.12 mph54%30.09 "Hg10 mi
2:53 pm78 °FScattered clouds.10 mph54%30.08 "Hg10 mi
3:53 pm77 °FPassing clouds.13 mph54%30.08 "Hg10 mi
4:53 pm77 °FPassing clouds.10 mph54%30.08 "Hg10 mi
5:53 pm73 °FPassing clouds.3 mph62%30.09 "Hg10 mi
6:53 pm67 °FClear.5 mph79%30.11 "Hg10 mi
7:53 pm69 °FClear.10 mph59%30.14 "Hg10 mi
8:53 pm67 °FClear.9 mph63%30.15 "Hg10 mi
9:53 pm65 °FClear.8 mph68%30.16 "Hg10 mi
10:53 pm64 °FClear.9 mph68%30.17 "Hg10 mi
11:53 pm63 °FClear.10 mph63%30.18 "Hg10 mi
Weather by CustomWeather, © 2020

See weather overview